Time;durP1;ratioP1;P1;durP2;ratioP2;P2;SDS_P1;SDS_P2;PMS_P1;PMS_P2;Temp;Humidity;BMP_temperature;BMP_pressure;BME280_temperature;BME280_humidity;BME280_pressure;Samples;Min_cycle;Max_cycle;Signal;HPM_P1;HPM_P2
2021/01/12 00:00:11;;;;;;;28.45;16.98;;;-1.30;99.90;;;;;;6185401;23;20352;-79
2021/01/12 00:02:37;;;;;;;25.42;15.25;;;-1.30;99.90;;;;;;6162247;23;20077;-80
2021/01/12 00:05:05;;;;;;;26.08;15.52;;;-1.30;99.90;;;;;;6161738;23;20028;-80
2021/01/12 00:07:32;;;;;;;27.00;16.25;;;-1.20;99.90;;;;;;6162177;23;20048;-79
2021/01/12 00:09:58;;;;;;;25.08;14.93;;;-1.20;99.90;;;;;;6187169;23;20032;-79
2021/01/12 00:12:25;;;;;;;24.73;15.23;;;-1.30;99.90;;;;;;6161153;23;20071;-80
2021/01/12 00:14:51;;;;;;;27.45;15.68;;;-1.30;99.90;;;;;;6187531;23;20100;-79
2021/01/12 00:17:17;;;;;;;25.90;15.23;;;-1.20;99.90;;;;;;6187375;23;20040;-79
2021/01/12 00:19:44;;;;;;;27.95;15.75;;;-1.10;99.90;;;;;;6160472;23;20021;-79
2021/01/12 00:22:14;;;;;;;24.30;15.13;;;-1.10;99.90;;;;;;6186742;23;20356;-79
2021/01/12 00:24:43;;;;;;;26.38;16.27;;;-1.10;99.90;;;;;;6186500;23;20387;-79
2021/01/12 00:27:09;;;;;;;23.67;14.77;;;-1.10;99.90;;;;;;6186976;23;20028;-79
2021/01/12 00:29:36;;;;;;;26.13;15.90;;;-1.20;99.90;;;;;;6186770;23;20059;-79
2021/01/12 00:32:02;;;;;;;24.00;15.63;;;-1.20;99.90;;;;;;6186137;23;20092;-78
2021/01/12 00:34:29;;;;;;;27.52;15.63;;;-1.20;99.90;;;;;;6161307;23;20052;-79
2021/01/12 00:36:55;;;;;;;25.60;15.75;;;-1.20;99.90;;;;;;6187939;23;20080;-79
2021/01/12 00:39:22;;;;;;;26.25;15.20;;;-1.20;99.90;;;;;;6188318;23;20025;-79
2021/01/12 00:41:52;;;;;;;25.55;15.75;;;-1.20;99.90;;;;;;6187814;23;20072;-79
2021/01/12 00:44:20;;;;;;;25.98;15.68;;;-1.10;99.90;;;;;;6187852;23;20100;-79
2021/01/12 00:46:47;;;;;;;27.33;15.63;;;-1.10;99.90;;;;;;6187303;23;20056;-80
2021/01/12 00:49:15;;;;;;;27.48;15.15;;;-1.10;99.90;;;;;;6187354;23;20021;-79
2021/01/12 00:51:42;;;;;;;26.67;15.10;;;-1.10;99.90;;;;;;6161348;23;20029;-79
2021/01/12 00:54:13;;;;;;;23.52;13.52;;;-1.00;99.90;;;;;;6186874;23;20484;-79
2021/01/12 00:56:47;;;;;;;21.92;13.48;;;-1.00;99.90;;;;;;6186824;23;20021;-79
2021/01/12 00:59:13;;;;;;;19.77;13.10;;;-1.00;99.90;;;;;;6160523;23;20027;-79
2021/01/12 01:01:40;;;;;;;24.40;14.55;;;-0.90;99.90;;;;;;6188065;23;20072;-77
2021/01/12 01:04:07;;;;;;;20.90;13.57;;;-0.90;99.90;;;;;;6187330;23;20022;-77
2021/01/12 01:06:33;;;;;;;21.23;13.88;;;-1.00;99.90;;;;;;6186855;23;20053;-77
2021/01/12 01:09:00;;;;;;;24.42;14.48;;;-1.00;99.90;;;;;;6187186;23;20403;-77
2021/01/12 01:11:26;;;;;;;21.55;14.25;;;-1.00;99.90;;;;;;6160517;23;20052;-77
2021/01/12 01:13:52;;;;;;;21.95;13.93;;;-1.00;99.90;;;;;;6186057;23;20048;-77
2021/01/12 01:16:29;;;;;;;20.58;12.80;;;-1.00;99.90;;;;;;6186992;23;20096;-77
2021/01/12 01:18:55;;;;;;;21.92;12.50;;;-1.00;99.90;;;;;;6160376;23;20456;-78
2021/01/12 01:21:21;;;;;;;23.40;13.50;;;-1.00;99.90;;;;;;6160169;23;20056;-77
2021/01/12 01:23:47;;;;;;;21.77;12.95;;;-0.90;99.90;;;;;;6160142;23;20067;-77
2021/01/12 01:26:17;;;;;;;19.25;12.23;;;-0.90;99.90;;;;;;6186363;23;20333;-77
2021/01/12 01:28:43;;;;;;;19.33;12.57;;;-0.90;99.90;;;;;;6186022;23;20061;-78
2021/01/12 01:31:10;;;;;;;18.30;11.60;;;-0.90;99.90;;;;;;6160217;23;20107;-77
2021/01/12 01:33:36;;;;;;;18.33;12.05;;;-0.80;99.90;;;;;;6185831;23;20376;-77
2021/01/12 01:36:04;;;;;;;19.23;12.48;;;-0.80;99.90;;;;;;6186294;23;20017;-77
2021/01/12 01:38:31;;;;;;;21.70;12.77;;;-0.80;99.90;;;;;;6159516;23;20059;-78
2021/01/12 01:40:58;;;;;;;18.10;12.05;;;-0.80;99.90;;;;;;6185921;23;20067;-77
2021/01/12 01:43:24;;;;;;;21.90;12.68;;;-0.80;99.90;;;;;;6186145;23;20053;-77
2021/01/12 01:45:52;;;;;;;22.05;13.70;;;-0.80;99.90;;;;;;6159515;23;20083;-77
2021/01/12 01:48:19;;;;;;;25.33;14.40;;;-0.80;99.90;;;;;;6187585;23;20069;-78
2021/01/12 01:50:46;;;;;;;21.98;14.38;;;-0.80;99.90;;;;;;6188752;23;20028;-78
2021/01/12 01:53:13;;;;;;;25.20;16.15;;;-0.80;99.90;;;;;;6188405;23;20021;-78
2021/01/12 01:55:40;;;;;;;26.45;16.42;;;-0.80;99.90;;;;;;6162203;23;20032;-77
2021/01/12 01:58:08;;;;;;;26.65;16.88;;;-0.90;99.90;;;;;;6188693;23;20040;-77
2021/01/12 02:00:36;;;;;;;26.77;16.95;;;-0.90;99.90;;;;;;6188059;23;20025;-78
2021/01/12 02:03:20;;;;;;;29.30;16.85;;;-0.90;99.90;;;;;;6188133;23;20059;-78
2021/01/12 02:06:02;;;;;;;25.50;15.93;;;-0.90;99.90;;;;;;6187967;23;20464;-78
2021/01/12 02:08:40;;;;;;;26.45;17.30;;;-0.90;99.90;;;;;;6187928;23;20021;-78
2021/01/12 02:11:10;;;;;;;28.55;16.35;;;-0.90;99.90;;;;;;6188110;23;20360;-78
2021/01/12 02:13:38;;;;;;;29.27;16.52;;;-0.90;99.90;;;;;;6187481;23;20351;-78
2021/01/12 02:16:05;;;;;;;22.52;14.48;;;-0.90;99.90;;;;;;6187351;23;20021;-77
2021/01/12 02:18:36;;;;;;;25.30;15.82;;;-0.90;99.90;;;;;;6187252;23;20395;-77
2021/01/12 02:21:03;;;;;;;25.38;15.32;;;-0.90;99.90;;;;;;6187265;23;20083;-78
2021/01/12 02:23:42;;;;;;;24.15;13.93;;;-0.80;99.90;;;;;;6186977;23;20455;-78
2021/01/12 02:26:08;;;;;;;23.73;14.00;;;-0.80;99.90;;;;;;6187122;23;20403;-78
2021/01/12 02:28:35;;;;;;;24.63;14.98;;;-0.70;99.90;;;;;;6186687;23;20095;-79
2021/01/12 02:31:01;;;;;;;26.15;15.85;;;-0.70;99.90;;;;;;6186901;23;20029;-78
2021/01/12 02:33:28;;;;;;;25.88;16.02;;;-0.60;99.90;;;;;;6186634;23;20020;-78
2021/01/12 02:35:56;;;;;;;27.52;17.00;;;-0.60;99.90;;;;;;6159808;23;20052;-77
2021/01/12 02:38:22;;;;;;;28.55;15.45;;;-0.60;99.90;;;;;;6186260;23;20400;-78
2021/01/12 02:40:49;;;;;;;30.00;16.25;;;-0.50;99.90;;;;;;6160519;23;20071;-77
2021/01/12 02:43:15;;;;;;;26.02;16.63;;;-0.50;99.90;;;;;;6186026;23;20029;-77
2021/01/12 02:45:41;;;;;;;26.48;15.70;;;-0.50;99.90;;;;;;6185826;23;20056;-77
2021/01/12 02:48:07;;;;;;;25.35;16.08;;;-0.50;99.90;;;;;;6185984;23;20029;-77
2021/01/12 02:50:34;;;;;;;26.20;15.75;;;-0.50;99.90;;;;;;6185630;23;20025;-78
2021/01/12 02:53:00;;;;;;;23.58;14.07;;;-0.50;99.90;;;;;;6185814;23;20095;-78
2021/01/12 02:55:26;;;;;;;21.92;14.77;;;-0.40;99.90;;;;;;6185946;23;20057;-77
2021/01/12 02:57:52;;;;;;;22.60;14.52;;;-0.40;99.90;;;;;;6159206;23;20028;-79
2021/01/12 03:00:19;;;;;;;23.20;14.55;;;-0.40;99.90;;;;;;6159532;23;20021;-77
2021/01/12 03:02:45;;;;;;;26.00;14.73;;;-0.40;99.90;;;;;;6185858;23;20025;-77
2021/01/12 03:05:12;;;;;;;23.88;15.07;;;-0.40;99.90;;;;;;6159535;23;20025;-77
2021/01/12 03:07:38;;;;;;;24.33;15.68;;;-0.40;99.90;;;;;;6159508;23;20025;-78
2021/01/12 03:10:05;;;;;;;24.13;15.50;;;-0.40;99.90;;;;;;6185807;23;20096;-77
2021/01/12 03:12:32;;;;;;;24.63;15.50;;;-0.40;99.90;;;;;;6184930;23;20028;-77
2021/01/12 03:14:58;;;;;;;23.88;14.85;;;-0.40;99.90;;;;;;6185745;23;20092;-78
2021/01/12 03:17:24;;;;;;;23.90;15.77;;;-0.40;99.90;;;;;;6185553;23;20056;-78
2021/01/12 03:19:51;;;;;;;20.85;14.40;;;-0.40;99.90;;;;;;6184948;23;20024;-78
2021/01/12 03:22:17;;;;;;;22.77;13.70;;;-0.40;99.90;;;;;;6185232;23;20016;-77
2021/01/12 03:24:43;;;;;;;22.23;14.00;;;-0.40;99.90;;;;;;6159263;23;20456;-78
2021/01/12 03:27:09;;;;;;;19.55;13.25;;;-0.40;99.90;;;;;;6185212;23;20059;-77
2021/01/12 03:29:36;;;;;;;19.88;13.30;;;-0.30;99.90;;;;;;6185164;23;20052;-78
2021/01/12 03:32:02;;;;;;;20.58;12.02;;;-0.40;99.90;;;;;;6185409;23;20040;-78
2021/01/12 03:34:29;;;;;;;18.67;12.65;;;-0.30;99.90;;;;;;6186297;23;20027;-79
2021/01/12 03:36:55;;;;;;;20.77;13.50;;;-0.40;99.90;;;;;;6161740;23;20060;-78
2021/01/12 03:39:22;;;;;;;20.27;13.55;;;-0.40;99.90;;;;;;6187845;23;20409;-79
2021/01/12 03:41:48;;;;;;;17.10;11.70;;;-0.40;99.90;;;;;;6188348;23;20051;-78
2021/01/12 03:44:14;;;;;;;19.13;11.77;;;-0.40;99.90;;;;;;6161313;23;20522;-78
2021/01/12 03:46:41;;;;;;;16.52;11.05;;;-0.40;99.90;;;;;;6187520;23;20029;-79
2021/01/12 03:49:08;;;;;;;19.05;11.40;;;-0.50;99.90;;;;;;6187862;23;20092;-78
2021/01/12 03:51:34;;;;;;;16.98;9.45;;;-0.40;99.90;;;;;;6161301;23;20056;-78
2021/01/12 03:54:00;;;;;;;13.73;9.98;;;-0.40;99.90;;;;;;6186885;23;20017;-77
2021/01/12 03:56:26;;;;;;;15.90;10.18;;;-0.40;99.90;;;;;;6160826;23;20044;-78
2021/01/12 03:58:52;;;;;;;14.80;9.90;;;-0.40;99.90;;;;;;6160586;23;20484;-78
2021/01/12 04:01:19;;;;;;;15.32;9.70;;;-0.40;99.90;;;;;;6187370;23;20017;-78
2021/01/12 04:03:45;;;;;;;14.23;9.30;;;-0.40;99.90;;;;;;6186887;23;20029;-78
2021/01/12 04:06:16;;;;;;;11.82;7.97;;;-0.40;99.90;;;;;;6186366;23;20480;-78
2021/01/12 04:08:45;;;;;;;10.00;8.13;;;-0.30;99.90;;;;;;6187869;23;20100;-77
2021/01/12 04:11:12;;;;;;;10.98;7.88;;;-0.30;99.90;;;;;;6162462;23;20025;-77
2021/01/12 04:13:39;;;;;;;10.25;8.10;;;-0.30;99.90;;;;;;6176825;23;20021;-78
2021/01/12 04:16:06;;;;;;;8.32;7.18;;;-0.30;99.90;;;;;;6186817;23;20075;-77
2021/01/12 04:18:34;;;;;;;9.63;7.18;;;-0.20;99.90;;;;;;6186048;23;20028;-78
2021/01/12 04:21:00;;;;;;;9.40;7.28;;;-0.20;99.90;;;;;;6185561;23;20021;-78
2021/01/12 04:23:27;;;;;;;10.05;7.78;;;-0.20;99.90;;;;;;6187685;23;20381;-77
2021/01/12 04:25:54;;;;;;;9.02;7.43;;;-0.20;99.90;;;;;;6185866;23;20032;-77
2021/01/12 04:28:20;;;;;;;9.48;7.38;;;-0.10;99.90;;;;;;6187096;23;20032;-78
2021/01/12 04:30:47;;;;;;;11.68;7.28;;;-0.10;99.90;;;;;;6187624;23;20096;-78
2021/01/12 04:33:13;;;;;;;9.32;7.20;;;0.00;99.90;;;;;;6187906;23;20095;-78
2021/01/12 04:35:40;;;;;;;10.32;7.78;;;0.00;99.90;;;;;;6187216;23;20044;-76
2021/01/12 04:38:06;;;;;;;11.00;7.93;;;0.00;99.90;;;;;;6187336;23;20460;-78
2021/01/12 04:40:33;;;;;;;11.65;8.70;;;0.00;99.90;;;;;;6186822;23;20056;-77
2021/01/12 04:42:59;;;;;;;10.38;7.88;;;0.00;99.90;;;;;;6184976;23;20571;-77
2021/01/12 04:45:26;;;;;;;8.95;7.40;;;0.00;99.90;;;;;;6185502;23;20091;-77
2021/01/12 04:47:52;;;;;;;10.15;8.13;;;0.10;99.90;;;;;;6184626;23;20073;-76
2021/01/12 04:50:19;;;;;;;10.27;7.88;;;0.10;99.90;;;;;;6187061;23;20095;-77
2021/01/12 04:52:48;;;;;;;13.25;8.23;;;0.10;99.90;;;;;;6186761;23;20322;-78
2021/01/12 04:55:16;;;;;;;9.55;7.75;;;0.10;99.90;;;;;;6186549;23;20056;-78
2021/01/12 04:57:43;;;;;;;9.05;7.25;;;0.10;99.90;;;;;;6186405;23;20020;-77
2021/01/12 05:00:13;;;;;;;11.60;8.10;;;0.10;99.90;;;;;;6184963;23;20021;-78
2021/01/12 05:02:40;;;;;;;10.50;7.85;;;0.10;99.90;;;;;;6185260;23;20053;-78
2021/01/12 05:05:07;;;;;;;12.88;8.05;;;0.10;99.90;;;;;;6186661;23;20040;-78
2021/01/12 05:07:37;;;;;;;8.48;7.03;;;0.20;99.90;;;;;;6186842;23;20051;-78
2021/01/12 05:10:11;;;;;;;10.80;7.63;;;0.10;99.90;;;;;;6186272;23;20356;-78
2021/01/12 05:12:41;;;;;;;8.52;7.35;;;0.20;99.90;;;;;;6186573;23;20020;-78
2021/01/12 05:15:10;;;;;;;8.80;7.47;;;0.20;99.90;;;;;;6186715;23;20337;-77
2021/01/12 05:17:37;;;;;;;10.00;6.90;;;0.20;99.90;;;;;;6160313;23;20048;-78
2021/01/12 05:20:04;;;;;;;7.90;6.65;;;0.20;99.90;;;;;;6186720;23;20028;-77
2021/01/12 05:22:40;;;;;;;7.78;6.40;;;0.20;99.90;;;;;;6188838;23;20055;-78
2021/01/12 05:25:19;;;;;;;7.72;6.07;;;0.30;99.90;;;;;;6189494;23;20048;-78
2021/01/12 05:27:53;;;;;;;8.15;6.15;;;0.30;99.90;;;;;;6189300;23;20021;-79
2021/01/12 05:30:24;;;;;;;8.52;7.00;;;0.30;99.90;;;;;;6186066;23;20017;-80
2021/01/12 05:32:52;;;;;;;7.82;5.85;;;0.30;99.90;;;;;;6159973;23;20021;-80
2021/01/12 05:35:19;;;;;;;7.55;6.70;;;0.40;99.90;;;;;;6160032;23;20043;-77
2021/01/12 05:37:46;;;;;;;6.70;5.70;;;0.40;99.90;;;;;;6185914;23;20021;-75
2021/01/12 05:40:14;;;;;;;6.68;5.85;;;0.40;99.90;;;;;;6160133;23;20388;-76
2021/01/12 05:42:40;;;;;;;7.45;5.82;;;0.40;99.90;;;;;;6186259;23;20025;-77
2021/01/12 05:45:08;;;;;;;6.35;5.60;;;0.40;99.90;;;;;;6185959;23;20021;-77
2021/01/12 05:47:35;;;;;;;11.35;6.75;;;0.40;99.90;;;;;;6185908;23;20460;-77
2021/01/12 05:50:03;;;;;;;7.68;5.90;;;0.30;99.90;;;;;;6186129;23;20020;-78
2021/01/12 05:52:41;;;;;;;8.90;6.47;;;0.40;99.90;;;;;;6185835;23;20063;-77
2021/01/12 05:55:10;;;;;;;7.63;6.75;;;0.30;99.90;;;;;;6185822;23;20485;-80
2021/01/12 05:57:39;;;;;;;9.77;5.93;;;0.40;99.90;;;;;;6185890;23;20044;-79
2021/01/12 06:00:06;;;;;;;6.32;5.70;;;0.30;99.90;;;;;;6185825;23;20021;-80
2021/01/12 06:02:38;;;;;;;6.88;5.43;;;0.30;99.90;;;;;;6186364;23;20067;-78
2021/01/12 06:05:06;;;;;;;5.32;4.80;;;0.40;99.90;;;;;;6185807;23;20092;-77
2021/01/12 06:07:32;;;;;;;6.00;5.30;;;0.50;99.90;;;;;;6185668;23;20029;-79
2021/01/12 06:10:00;;;;;;;5.30;4.80;;;0.50;99.90;;;;;;6186019;23;20017;-78
2021/01/12 06:12:27;;;;;;;4.95;4.50;;;0.50;99.90;;;;;;6185506;23;20096;-76
2021/01/12 06:14:58;;;;;;;7.03;5.03;;;0.50;99.90;;;;;;6186093;23;20088;-77
2021/01/12 06:17:36;;;;;;;4.95;4.45;;;0.50;99.90;;;;;;6160592;23;20059;-77
2021/01/12 06:20:04;;;;;;;5.20;4.30;;;0.60;99.90;;;;;;6185755;23;20020;-80
2021/01/12 06:22:41;;;;;;;5.05;4.60;;;0.60;99.90;;;;;;6186601;23;20024;-77
2021/01/12 06:25:12;;;;;;;9.18;4.63;;;0.60;99.90;;;;;;6186461;23;20017;-80
2021/01/12 06:27:38;;;;;;;3.92;3.58;;;0.60;99.90;;;;;;6159916;23;20093;-80
2021/01/12 06:30:07;;;;;;;4.07;3.78;;;0.70;99.90;;;;;;6185742;23;20104;-77
2021/01/12 06:32:35;;;;;;;4.13;3.72;;;0.80;99.90;;;;;;6185934;23;20352;-77
2021/01/12 06:35:07;;;;;;;4.50;4.10;;;0.80;99.90;;;;;;6185874;23;20028;-78
2021/01/12 06:37:40;;;;;;;4.25;3.90;;;0.90;99.90;;;;;;6186212;23;20021;-77
2021/01/12 06:40:08;;;;;;;4.27;3.87;;;0.80;99.90;;;;;;6159268;23;20060;-77
2021/01/12 06:42:36;;;;;;;4.85;4.38;;;0.80;99.90;;;;;;6185562;23;20017;-77
2021/01/12 06:45:04;;;;;;;4.57;4.18;;;0.80;99.90;;;;;;6159946;23;20021;-78
2021/01/12 06:47:32;;;;;;;3.83;3.53;;;0.80;99.90;;;;;;6159968;23;20068;-77
2021/01/12 06:50:10;;;;;;;4.30;3.90;;;0.90;99.90;;;;;;6186343;23;20021;-77
2021/01/12 06:52:48;;;;;;;3.80;3.50;;;0.90;99.90;;;;;;6186340;23;20071;-79
2021/01/12 06:55:16;;;;;;;3.97;3.67;;;0.90;99.90;;;;;;6185746;23;20017;-80
2021/01/12 06:57:49;;;;;;;3.90;3.47;;;0.90;99.90;;;;;;6187021;23;20063;-78
2021/01/12 07:00:16;;;;;;;;;;;0.90;99.90;;;;;;6160215;23;20028;-78
2021/01/12 07:02:43;;;;;;;5.28;3.50;;;0.90;99.90;;;;;;6159377;23;19999;-78
2021/01/12 07:05:12;;;;;;;3.90;3.60;;;0.90;99.90;;;;;;6160107;23;20069;-77
2021/01/12 07:07:42;;;;;;;4.32;3.92;;;0.90;99.90;;;;;;6185886;23;20020;-76
2021/01/12 07:10:11;;;;;;;4.22;3.83;;;1.00;99.90;;;;;;6188974;23;20100;-79
2021/01/12 07:12:38;;;;;;;3.65;3.33;;;1.00;99.90;;;;;;6189083;23;20021;-82
2021/01/12 07:15:15;;;;;;;3.53;3.28;;;1.10;99.90;;;;;;6189188;23;20020;-78
2021/01/12 07:17:44;;;;;;;3.40;3.15;;;1.10;99.90;;;;;;6163247;23;20072;-81
2021/01/12 07:20:19;;;;;;;3.42;3.15;;;1.10;99.90;;;;;;6188720;23;20028;-82
2021/01/12 07:23:00;;;;;;;6.18;2.97;;;1.10;99.90;;;;;;6162889;23;20045;-80
2021/01/12 07:25:37;;;;;;;3.45;3.15;;;1.10;99.90;;;;;;6188742;23;20021;-77
2021/01/12 07:28:09;;;;;;;3.25;2.95;;;1.10;99.90;;;;;;6187668;23;20471;-81
2021/01/12 07:30:39;;;;;;;3.72;3.42;;;1.20;99.90;;;;;;6187637;23;20017;-80
2021/01/12 07:33:08;;;;;;;3.00;2.80;;;1.20;99.90;;;;;;6184749;23;20017;-78
2021/01/12 07:35:36;;;;;;;3.35;2.90;;;1.20;99.90;;;;;;6158547;23;20052;-77
2021/01/12 07:38:03;;;;;;;4.30;2.88;;;1.20;99.90;;;;;;6185474;23;20341;-78
2021/01/12 07:40:30;;;;;;;3.03;2.80;;;1.30;99.90;;;;;;6185364;23;20017;-79
2021/01/12 07:42:58;;;;;;;2.70;2.50;;;1.30;99.90;;;;;;6185886;23;20484;-78
2021/01/12 07:45:27;;;;;;;2.03;1.92;;;1.30;99.90;;;;;;6160955;23;20056;-79
2021/01/12 07:47:56;;;;;;;2.70;2.50;;;1.40;99.90;;;;;;6186381;23;20060;-79
2021/01/12 07:50:24;;;;;;;2.40;2.20;;;1.40;99.90;;;;;;6187176;23;20055;-79
2021/01/12 07:52:50;;;;;;;2.10;2.00;;;1.40;99.90;;;;;;6160452;23;20029;-78
2021/01/12 07:55:17;;;;;;;2.00;1.85;;;1.50;99.90;;;;;;6160649;23;20320;-78
2021/01/12 07:57:46;;;;;;;1.80;1.70;;;1.50;99.90;;;;;;6186534;23;20052;-79
2021/01/12 08:00:14;;;;;;;3.70;3.40;;;1.50;99.90;;;;;;6160618;23;20478;-79
2021/01/12 08:02:49;;;;;;;2.20;2.10;;;1.60;99.90;;;;;;6160053;23;20522;-79
2021/01/12 08:05:18;;;;;;;1.58;1.48;;;1.60;99.90;;;;;;6161277;23;20017;-78
2021/01/12 08:07:45;;;;;;;1.50;1.40;;;1.60;99.90;;;;;;6160157;23;20021;-80
2021/01/12 08:10:11;;;;;;;1.25;1.23;;;1.70;99.90;;;;;;6186947;23;20021;-79
2021/01/12 08:13:08;;;;;;;2.20;1.38;;;1.70;99.90;;;;;;6186912;23;20492;-78
2021/01/12 08:15:36;;;;;;;1.30;1.30;;;1.70;99.90;;;;;;6185945;23;20063;-79
2021/01/12 08:18:09;;;;;;;1.40;1.30;;;1.70;99.90;;;;;;6186493;23;20025;-78
2021/01/12 08:20:36;;;;;;;1.05;1.05;;;1.80;99.90;;;;;;6186652;23;20074;-78
2021/01/12 08:23:02;;;;;;;1.55;1.45;;;1.80;99.90;;;;;;6186628;23;20483;-78
2021/01/12 08:25:33;;;;;;;1.75;1.65;;;1.80;99.90;;;;;;6186749;23;20388;-79
2021/01/12 08:28:00;;;;;;;0.95;0.93;;;1.90;99.90;;;;;;6186736;23;20077;-79
2021/01/12 08:30:30;;;;;;;0.90;0.90;;;1.90;99.90;;;;;;6160411;23;20096;-79
2021/01/12 08:33:12;;;;;;;0.80;0.80;;;1.90;99.90;;;;;;6186803;23;20108;-78
2021/01/12 08:35:46;;;;;;;1.17;0.63;;;2.00;99.90;;;;;;6186601;23;20028;-79
2021/01/12 08:38:13;;;;;;;1.10;0.98;;;2.00;99.90;;;;;;6186834;23;20364;-77
2021/01/12 08:40:45;;;;;;;2.70;1.80;;;2.10;99.90;;;;;;6186829;23;20024;-78
2021/01/12 08:43:18;;;;;;;0.70;0.70;;;2.10;99.90;;;;;;6186453;23;20079;-79
2021/01/12 08:45:45;;;;;;;3.20;1.88;;;2.10;99.90;;;;;;6186667;23;20360;-79
2021/01/12 08:48:15;;;;;;;0.80;0.80;;;2.10;99.90;;;;;;6160659;23;20025;-78
2021/01/12 08:50:43;;;;;;;0.60;0.60;;;2.10;99.90;;;;;;6186281;23;20100;-78
2021/01/12 08:53:10;;;;;;;1.48;0.90;;;2.20;99.90;;;;;;6160705;23;20326;-78
2021/01/12 08:55:36;;;;;;;1.48;0.80;;;2.20;99.90;;;;;;6186558;23;20021;-79
2021/01/12 08:58:06;;;;;;;0.80;0.80;;;2.20;99.90;;;;;;6187444;23;20025;-79
2021/01/12 09:00:34;;;;;;;3.22;1.10;;;2.20;99.90;;;;;;6165406;23;20025;-79
2021/01/12 09:03:02;;;;;;;0.90;0.90;;;2.20;99.90;;;;;;6164981;23;20449;-80
2021/01/12 09:05:36;;;;;;;0.80;0.80;;;2.20;99.90;;;;;;6190297;23;20408;-82
2021/01/12 09:08:04;;;;;;;1.10;1.00;;;2.30;99.90;;;;;;6164746;23;20021;-80
2021/01/12 09:10:32;;;;;;;0.77;0.77;;;2.30;99.90;;;;;;6163833;23;20045;-79
2021/01/12 09:12:59;;;;;;;0.75;0.75;;;2.30;99.90;;;;;;6169116;23;20435;-80
2021/01/12 09:15:40;;;;;;;0.50;0.50;;;2.30;99.90;;;;;;6188621;23;20048;-78
2021/01/12 09:18:16;;;;;;;1.30;1.30;;;2.30;99.90;;;;;;6187327;23;20088;-79
2021/01/12 09:20:43;;;;;;;3.83;3.15;;;2.30;99.90;;;;;;6186799;23;20072;-79
2021/01/12 09:23:12;;;;;;;7.18;6.47;;;2.40;99.90;;;;;;6187638;23;20032;-79
2021/01/12 09:26:00;;;;;;;3.58;3.38;;;2.40;99.90;;;;;;6188731;23;20067;-81
2021/01/12 09:28:37;;;;;;;2.47;2.30;;;2.40;99.90;;;;;;6187968;23;20025;-79
2021/01/12 09:31:13;;;;;;;0.70;0.70;;;2.40;99.90;;;;;;6188451;23;20329;-79
2021/01/12 09:33:45;;;;;;;3.08;1.40;;;2.50;99.90;;;;;;6186181;23;20017;-79
2021/01/12 09:36:12;;;;;;;0.70;0.70;;;2.50;99.90;;;;;;6187386;23;20064;-79
2021/01/12 09:38:52;;;;;;;2.83;2.55;;;2.50;99.90;;;;;;6185400;23;20048;-79
2021/01/12 09:41:23;;;;;;;1.30;1.30;;;2.50;99.90;;;;;;6187046;23;20017;-78
2021/01/12 09:43:52;;;;;;;0.30;0.30;;;2.60;99.90;;;;;;6186398;23;20025;-81
2021/01/12 09:46:19;;;;;;;1.65;1.65;;;2.70;99.90;;;;;;6184350;23;20025;-80
2021/01/12 09:48:46;;;;;;;2.80;2.70;;;2.70;99.90;;;;;;6185446;23;20096;-78
2021/01/12 09:51:13;;;;;;;2.42;1.10;;;2.70;99.90;;;;;;6185179;23;20534;-79
2021/01/12 09:53:41;;;;;;;0.40;0.40;;;2.70;99.90;;;;;;6185184;23;20471;-79
2021/01/12 09:56:12;;;;;;;0.38;0.38;;;2.70;99.90;;;;;;6184749;23;20052;-79
2021/01/12 09:58:39;;;;;;;1.40;1.40;;;2.70;99.90;;;;;;6186389;23;20051;-79
2021/01/12 10:01:05;;;;;;;1.27;1.27;;;2.70;99.90;;;;;;6185261;23;20092;-78
2021/01/12 10:03:31;;;;;;;0.30;0.30;;;2.80;99.90;;;;;;6185666;23;20076;-79
2021/01/12 10:05:58;;;;;;;0.70;0.35;;;2.80;99.90;;;;;;6184774;23;20024;-79
2021/01/12 10:08:25;;;;;;;0.50;0.30;;;2.80;99.90;;;;;;6186936;23;20092;-79
2021/01/12 10:10:54;;;;;;;0.30;0.30;;;2.90;99.90;;;;;;6185552;23;20083;-78
2021/01/12 10:13:21;;;;;;;0.57;0.30;;;2.90;99.90;;;;;;6184748;23;20055;-79
2021/01/12 10:15:48;;;;;;;0.30;0.30;;;3.00;99.90;;;;;;6187011;23;20021;-79
2021/01/12 10:18:15;;;;;;;0.40;0.30;;;3.10;99.90;;;;;;6185345;23;20025;-79
2021/01/12 10:20:42;;;;;;;0.40;0.10;;;3.10;99.90;;;;;;6184448;23;20028;-80
2021/01/12 10:23:08;;;;;;;4.38;0.88;;;3.20;99.90;;;;;;6185095;23;20088;-79
2021/01/12 10:25:35;;;;;;;0.40;0.20;;;3.20;99.90;;;;;;6186068;23;20381;-78
2021/01/12 10:28:03;;;;;;;0.20;0.20;;;3.30;99.90;;;;;;6186246;23;20067;-78
2021/01/12 10:30:29;;;;;;;0.20;0.20;;;3.50;99.90;;;;;;6186157;23;20024;-78
2021/01/12 10:32:56;;;;;;;1.17;0.20;;;3.60;99.90;;;;;;6187054;23;20024;-79
2021/01/12 10:35:22;;;;;;;0.93;0.30;;;3.80;99.90;;;;;;6186757;23;20419;-78
2021/01/12 10:37:50;;;;;;;0.30;0.17;;;3.70;99.90;;;;;;6185272;23;20021;-78
2021/01/12 10:40:17;;;;;;;1.60;0.35;;;3.80;99.90;;;;;;6184812;23;20041;-78
2021/01/12 10:42:45;;;;;;;0.30;0.30;;;3.90;99.90;;;;;;6184867;23;20096;-78
2021/01/12 10:45:13;;;;;;;0.47;0.30;;;3.90;99.90;;;;;;6187159;23;20080;-79
2021/01/12 10:47:43;;;;;;;1.02;0.45;;;3.90;99.90;;;;;;6189415;23;20044;-79
2021/01/12 10:50:14;;;;;;;0.60;0.60;;;3.80;99.90;;;;;;6190095;23;20379;-79
2021/01/12 10:52:41;;;;;;;0.47;0.25;;;3.70;99.90;;;;;;6189892;23;20494;-79
2021/01/12 10:55:09;;;;;;;0.30;0.20;;;3.70;99.90;;;;;;6189305;23;20024;-80
2021/01/12 10:57:35;;;;;;;0.17;0.17;;;3.70;99.90;;;;;;6188742;23;20017;-80
2021/01/12 11:00:05;;;;;;;0.20;0.20;;;3.70;99.90;;;;;;6189977;23;20021;-82
2021/01/12 11:02:34;;;;;;;0.13;0.13;;;3.70;99.90;;;;;;6189294;23;20021;-80
2021/01/12 11:05:02;;;;;;;0.10;0.10;;;3.60;99.90;;;;;;6189574;23;20025;-78
2021/01/12 11:07:31;;;;;;;2.72;0.30;;;3.50;99.90;;;;;;6189628;23;20043;-80
2021/01/12 11:09:58;;;;;;;0.20;0.20;;;3.60;99.90;;;;;;6189686;23;20025;-79
2021/01/12 11:12:25;;;;;;;0.25;0.25;;;3.50;99.90;;;;;;6188408;23;20025;-80
2021/01/12 11:22:49;;;;;;;1.13;0.57;;;3.70;99.90;;;;;;6216300;23;20087;-77
2021/01/12 11:25:16;;;;;;;7.70;1.40;;;3.70;99.90;;;;;;6190292;23;20096;-79
2021/01/12 11:27:42;;;;;;;0.88;0.40;;;3.60;99.90;;;;;;6216610;23;20025;-78
2021/01/12 11:30:09;;;;;;;0.82;0.55;;;3.50;99.90;;;;;;6216710;23;20031;-78
2021/01/12 11:32:39;;;;;;;0.60;0.60;;;3.40;99.90;;;;;;6217089;23;20070;-78
2021/01/12 11:35:05;;;;;;;1.83;1.25;;;3.40;99.90;;;;;;6189830;23;20063;-78
2021/01/12 11:37:32;;;;;;;1.08;1.00;;;3.40;99.90;;;;;;6190267;23;20024;-77
2021/01/12 11:39:58;;;;;;;0.20;0.20;;;3.40;99.90;;;;;;6217360;23;20020;-77
2021/01/12 11:42:25;;;;;;;0.30;0.20;;;3.40;99.90;;;;;;6215746;23;20096;-78
2021/01/12 11:44:52;;;;;;;0.30;0.30;;;3.50;99.90;;;;;;6190176;23;20021;-78
2021/01/12 11:47:19;;;;;;;0.52;0.52;;;3.60;99.90;;;;;;6216703;23;20024;-78
2021/01/12 11:49:47;;;;;;;0.90;0.30;;;3.60;99.90;;;;;;6190840;23;20024;-78
2021/01/12 11:52:16;;;;;;;0.57;0.20;;;3.50;99.90;;;;;;6216158;23;20024;-78
2021/01/12 11:54:43;;;;;;;0.10;0.10;;;3.60;99.90;;;;;;6217154;23;20091;-78
2021/01/12 11:57:10;;;;;;;0.10;0.10;;;3.50;99.90;;;;;;6216202;23;20091;-78
2021/01/12 11:59:37;;;;;;;1.55;0.10;;;3.50;99.90;;;;;;6189923;23;20040;-79
2021/01/12 12:02:03;;;;;;;0.10;0.10;;;3.50;99.90;;;;;;6189643;23;20478;-78
2021/01/12 12:04:30;;;;;;;0.20;0.13;;;3.40;99.90;;;;;;6189467;23;20028;-80
2021/01/12 12:06:59;;;;;;;0.10;0.10;;;3.40;99.90;;;;;;6189704;23;20100;-77
2021/01/12 12:09:28;;;;;;;0.20;0.20;;;3.40;99.90;;;;;;6216753;23;20031;-78
2021/01/12 12:11:54;;;;;;;0.75;0.13;;;3.40;99.90;;;;;;6189744;23;20104;-78
2021/01/12 12:14:21;;;;;;;0.30;0.30;;;3.40;99.90;;;;;;6216763;23;20100;-79
2021/01/12 12:16:48;;;;;;;0.50;0.50;;;3.40;99.90;;;;;;6216067;23;20020;-78
2021/01/12 12:19:16;;;;;;;3.40;0.30;;;3.40;99.90;;;;;;6216152;23;20410;-78
2021/01/12 12:21:49;;;;;;;;;;;3.40;99.90;;;;;;6191069;23;20063;-78
2021/01/12 12:24:16;;;;;;;1.85;0.38;;;3.40;99.90;;;;;;6215637;23;19951;-78
2021/01/12 12:26:44;;;;;;;5.28;0.65;;;3.50;99.90;;;;;;6188720;23;20099;-79
2021/01/12 12:29:10;;;;;;;0.10;0.10;;;3.70;99.90;;;;;;6216335;23;20488;-79
2021/01/12 12:31:36;;;;;;;0.90;0.20;;;3.90;99.90;;;;;;6222104;23;20028;-82
2021/01/12 12:34:04;;;;;;;1.60;0.17;;;3.90;99.90;;;;;;6196242;23;20020;-79
2021/01/12 12:36:30;;;;;;;0.10;0.10;;;3.90;99.90;;;;;;6195357;23;20021;-78
2021/01/12 12:38:57;;;;;;;0.20;0.20;;;3.90;99.90;;;;;;6195513;23;20032;-79
2021/01/12 12:41:24;;;;;;;0.10;0.10;;;3.90;99.90;;;;;;6221165;23;20104;-79
2021/01/12 12:43:50;;;;;;;6.70;0.30;;;3.90;99.90;;;;;;6194981;23;20031;-79
2021/01/12 12:46:18;;;;;;;0.10;0.10;;;3.80;99.90;;;;;;6193489;23;20028;-78
2021/01/12 12:48:45;;;;;;;0.20;0.20;;;3.80;99.90;;;;;;6219565;23;20076;-78
2021/01/12 12:51:13;;;;;;;0.10;0.10;;;3.80;99.90;;;;;;6220183;23;20051;-78
2021/01/12 12:53:41;;;;;;;0.68;0.20;;;3.70;99.90;;;;;;6191841;23;20047;-79
2021/01/12 12:56:12;;;;;;;0.10;0.10;;;3.70;99.90;;;;;;6193191;23;20020;-78
2021/01/12 12:58:38;;;;;;;0.03;0.03;;;3.60;99.90;;;;;;6219040;23;20016;-78
2021/01/12 13:01:06;;;;;;;0.10;0.10;;;3.60;99.90;;;;;;6191694;23;20094;-77